Pompeys Pillar, MT (59064)

2:59 AM MDT on September 01, 2015 (GMT -0600)
Billings Logan International | | Change Station
CLOSE
Current Station
Airport
Location: Billings,
Elevation: 3570 ft
Nearby Weather Stations

Elev 3570 ft 45.81 °N, 108.54 °W | Updated 6 minutes ago

Clear
Clear
61 °F
Feels Like 61 °F
N
6
Wind Variable Wind from SW

Today
High -- | Low -- °F
--% Chance of Precip.
Yesterday
High -- | Low -- °F
Precip. -- in
6:32 AM 7:50 PM
Waning Gibbous, 90% visible
Pressure 29.78 in
Visibility 10.0 miles
Clouds Clear
Dew Point 37 °F
Humidity 41%
Rainfall 0.00 in
Snow Depth Not available.
UV 0 out of 12
Pollen 8.80 out of 12
Air Quality Not available.
Flu Activity Not available.
METAR KBIL 010853Z 22005KT 10SM CLR 16/03 A2987 RMK AO2 SLP085 T01610028 56009
Pressure 29.78 in
Visibility 10.0 miles
Clouds Clear
Dew Point 37 °F
Humidity 41%
Rainfall 0.00 in
Snow Depth Not available.
UV 0 out of 12
Pollen 8.80 out of 12
Air Quality Not available.
Flu Activity Not available.
METAR KBIL 010853Z 22005KT 10SM CLR 16/03 A2987 RMK AO2 SLP085 T01610028 56009

10-Day Weather Forecast

×

Almanac

Astronomy

Sep. 01, 2015 Rise Set
Actual Time
Civil Twilight
Nautical Twilight
Astronomical Twilight
Moon
Length of Visible Light
Length of Day
Tomorrow will be .
, % of the Moon is Illuminated

Today's Extremes

State Highs State Lows

Community

WunderPhotos

Upload Photos

1,851,490 photos uploaded!

WunderBlogs® & News

Nearby

Air Quality

  Air Quality AQ Index Pollutant
Not available.

Snow Depth

Station Depth Elevation

Earthquake Activity

City Distance Mag. Time & Date
Minimum magnitude displayed is 2.5.

Coastal Water Temperatures

Place Temperature

Stations

Nearby Weather Stations

Station Location Temp. Windchill Dew Point Humidity Wind Precip. Elev Updated Type